Time;durP1;ratioP1;P1;durP2;ratioP2;P2;SDS_P1;SDS_P2;PMS_P1;PMS_P2;Temp;Humidity;BMP_temperature;BMP_pressure;BME280_temperature;BME280_humidity;BME280_pressure;Samples;Min_cycle;Max_cycle;Signal;HPM_P1;HPM_P2
2022/02/12 00:00:31;;;;;;;14.13;8.00;;;;;;;;;;5032869;28;20207;-89
2022/02/12 00:03:01;;;;;;;13.27;7.23;;;;;;;;;;5019945;28;20620;-88
2022/02/12 00:05:28;;;;;;;13.20;7.27;;;;;;;;;;5016632;28;20693;-88
2022/02/12 00:07:56;;;;;;;14.80;7.60;;;;;;;;;;5029112;28;20561;-88
2022/02/12 00:10:23;;;;;;;11.20;7.33;;;;;;;;;;5014521;28;20225;-88
2022/02/12 00:12:50;;;;;;;12.57;7.17;;;;;;;;;;5014300;28;20235;-89
2022/02/12 00:15:18;;;;;;;14.73;7.57;;;;;;;;;;5022073;28;20684;-88
2022/02/12 00:17:45;;;;;;;13.70;8.20;;;;;;;;;;5018398;28;20199;-88
2022/02/12 00:20:14;;;;;;;13.47;8.87;;;;;;;;;;5025770;28;20209;-88
2022/02/12 00:22:42;;;;;;;12.87;9.50;;;;;;;;;;5025459;28;20199;-88
2022/02/12 00:25:10;;;;;;;13.20;9.13;;;;;;;;;;5033874;28;20203;-88
2022/02/12 00:27:37;;;;;;;17.97;9.47;;;;;;;;;;5030377;28;20203;-88
2022/02/12 00:30:05;;;;;;;16.13;10.37;;;;;;;;;;5033756;28;20234;-88
2022/02/12 00:32:32;;;;;;;15.67;10.00;;;;;;;;;;5034054;28;20205;-88
2022/02/12 00:34:59;;;;;;;14.63;8.70;;;;;;;;;;5023966;28;20690;-88
2022/02/12 00:37:30;;;;;;;11.07;7.97;;;;;;;;;;5025174;28;20204;-88
2022/02/12 00:39:57;;;;;;;14.40;8.47;;;;;;;;;;5034353;28;20610;-88
2022/02/12 00:42:25;;;;;;;14.73;9.67;;;;;;;;;;5033672;28;20314;-88
2022/02/12 00:44:52;;;;;;;15.17;9.53;;;;;;;;;;5022886;28;20209;-88
2022/02/12 00:47:19;;;;;;;16.67;10.17;;;;;;;;;;5017558;28;20197;-87
2022/02/12 00:49:47;;;;;;;17.00;9.97;;;;;;;;;;5023491;28;20284;-88
2022/02/12 00:52:14;;;;;;;15.77;9.57;;;;;;;;;;5025262;28;20665;-88
2022/02/12 00:54:43;;;;;;;15.87;8.40;;;;;;;;;;5023414;28;20605;-88
2022/02/12 00:57:10;;;;;;;15.13;8.30;;;;;;;;;;5021857;28;20732;-88
2022/02/12 00:59:37;;;;;;;14.87;7.67;;;;;;;;;;5013442;28;20207;-88
2022/02/12 01:02:05;;;;;;;14.83;7.60;;;;;;;;;;5020005;28;20204;-88
2022/02/12 01:04:32;;;;;;;14.07;7.63;;;;;;;;;;5025030;28;20275;-88
2022/02/12 01:06:59;;;;;;;13.40;7.27;;;;;;;;;;5021338;28;20205;-88
2022/02/12 01:09:27;;;;;;;12.40;7.43;;;;;;;;;;5015778;28;20597;-88
2022/02/12 01:11:56;;;;;;;11.47;6.60;;;;;;;;;;5022439;28;20271;-88
2022/02/12 01:14:23;;;;;;;10.17;6.23;;;;;;;;;;5021177;28;20204;-88
2022/02/12 01:16:50;;;;;;;9.70;6.23;;;;;;;;;;5021955;28;20265;-88
2022/02/12 01:19:17;;;;;;;10.50;5.80;;;;;;;;;;5028274;28;20569;-87
2022/02/12 01:21:45;;;;;;;9.00;5.20;;;;;;;;;;5020860;28;20234;-88
2022/02/12 01:24:12;;;;;;;8.97;5.27;;;;;;;;;;5024881;28;20209;-88
2022/02/12 01:26:39;;;;;;;11.30;5.60;;;;;;;;;;5023471;28;20556;-88
2022/02/12 01:29:08;;;;;;;10.53;5.83;;;;;;;;;;5012740;28;20993;-88
2022/02/12 01:31:35;;;;;;;10.37;5.13;;;;;;;;;;5012884;28;20202;-88
2022/02/12 01:34:02;;;;;;;11.87;5.53;;;;;;;;;;5012883;28;20271;-88
2022/02/12 01:36:30;;;;;;;10.93;4.90;;;;;;;;;;5023405;28;20203;-88
2022/02/12 01:38:57;;;;;;;10.60;4.87;;;;;;;;;;5015812;28;20205;-88
2022/02/12 01:41:24;;;;;;;9.83;4.70;;;;;;;;;;5027995;28;20255;-88
2022/02/12 01:43:51;;;;;;;10.17;4.80;;;;;;;;;;5010150;28;20689;-87
2022/02/12 01:46:20;;;;;;;13.70;5.33;;;;;;;;;;4993968;28;20302;-88
2022/02/12 01:48:49;;;;;;;10.07;5.23;;;;;;;;;;4993635;28;20220;-88
2022/02/12 01:51:17;;;;;;;10.57;4.67;;;;;;;;;;5017602;28;20228;-88
2022/02/12 01:53:44;;;;;;;9.17;4.90;;;;;;;;;;5023931;28;20226;-87
2022/02/12 01:56:11;;;;;;;13.30;5.40;;;;;;;;;;5032874;28;20202;-88
2022/02/12 01:58:39;;;;;;;8.70;5.20;;;;;;;;;;5019022;28;20620;-87
2022/02/12 02:01:06;;;;;;;10.53;5.20;;;;;;;;;;5028181;28;20743;-87
2022/02/12 02:03:35;;;;;;;8.83;4.37;;;;;;;;;;5019522;28;20199;-88
2022/02/12 02:06:03;;;;;;;9.27;4.13;;;;;;;;;;5021034;28;20217;-87
2022/02/12 02:08:30;;;;;;;8.47;4.43;;;;;;;;;;5012962;28;20251;-87
2022/02/12 02:10:57;;;;;;;7.73;4.13;;;;;;;;;;5019984;28;20269;-87
2022/02/12 02:13:25;;;;;;;11.27;4.70;;;;;;;;;;5022809;28;20230;-88
2022/02/12 02:15:53;;;;;;;10.40;4.23;;;;;;;;;;5031892;28;20204;-88
2022/02/12 02:18:20;;;;;;;9.90;4.80;;;;;;;;;;5031783;28;20205;-87
2022/02/12 02:20:49;;;;;;;8.80;4.37;;;;;;;;;;5032196;28;20943;-87
2022/02/12 02:23:18;;;;;;;8.17;4.43;;;;;;;;;;5031849;28;20228;-87
2022/02/12 02:25:46;;;;;;;9.87;4.30;;;;;;;;;;5025659;28;20221;-88
2022/02/12 02:28:13;;;;;;;9.93;4.77;;;;;;;;;;5020787;28;20207;-88
2022/02/12 02:30:41;;;;;;;8.27;4.00;;;;;;;;;;5020006;28;20306;-87
2022/02/12 02:33:09;;;;;;;9.30;4.57;;;;;;;;;;5012288;28;20199;-87
2022/02/12 02:35:36;;;;;;;8.17;4.13;;;;;;;;;;5012221;28;20248;-87
2022/02/12 02:38:08;;;;;;;6.70;3.93;;;;;;;;;;5018224;28;20262;-87
2022/02/12 02:40:37;;;;;;;9.13;4.90;;;;;;;;;;5012560;28;20203;-87
2022/02/12 02:43:04;;;;;;;6.70;4.07;;;;;;;;;;4992294;28;20241;-87
2022/02/12 02:45:32;;;;;;;9.90;4.77;;;;;;;;;;5008462;28;20216;-87
2022/02/12 02:48:00;;;;;;;7.83;4.20;;;;;;;;;;5011615;28;20728;-87
2022/02/12 02:56:02;;;;;;;10.47;4.63;;;;;;;;;;5030735;28;20576;-87
2022/02/12 02:58:30;;;;;;;12.60;4.90;;;;;;;;;;5030948;28;20205;-87
2022/02/12 03:00:57;;;;;;;9.17;4.73;;;;;;;;;;5031839;28;20199;-87
2022/02/12 03:03:24;;;;;;;11.00;4.87;;;;;;;;;;5031803;28;20258;-88
2022/02/12 03:05:52;;;;;;;9.40;4.47;;;;;;;;;;5021686;28;20289;-87
2022/02/12 03:08:19;;;;;;;11.00;5.47;;;;;;;;;;5020070;28;20233;-88
2022/02/12 03:10:46;;;;;;;10.63;5.17;;;;;;;;;;5019089;28;20312;-87
2022/02/12 03:13:15;;;;;;;10.07;4.90;;;;;;;;;;5020614;28;20314;-87
2022/02/12 03:15:42;;;;;;;12.50;5.53;;;;;;;;;;5024812;28;20292;-87
2022/02/12 03:18:09;;;;;;;8.67;5.30;;;;;;;;;;5023054;28;20198;-88
2022/02/12 03:20:37;;;;;;;10.27;5.57;;;;;;;;;;5023407;28;20645;-87
2022/02/12 03:23:05;;;;;;;9.93;5.37;;;;;;;;;;5027582;28;20222;-88
2022/02/12 03:25:32;;;;;;;10.50;4.83;;;;;;;;;;5025523;28;20189;-87
2022/02/12 03:28:00;;;;;;;9.90;5.43;;;;;;;;;;5025393;28;20286;-87
2022/02/12 03:30:30;;;;;;;11.47;5.23;;;;;;;;;;5026143;28;20251;-87
2022/02/12 03:32:57;;;;;;;10.97;5.23;;;;;;;;;;5023079;28;20575;-88
2022/02/12 03:35:26;;;;;;;8.33;5.33;;;;;;;;;;5022970;28;20677;-88
2022/02/12 03:37:54;;;;;;;11.97;5.43;;;;;;;;;;5024668;28;20197;-88
2022/02/12 03:40:22;;;;;;;10.67;5.70;;;;;;;;;;5016821;28;20635;-87
2022/02/12 03:42:49;;;;;;;13.30;5.77;;;;;;;;;;5021043;28;20268;-88
2022/02/12 03:45:20;;;;;;;10.70;5.27;;;;;;;;;;5021713;28;20259;-88
2022/02/12 03:47:48;;;;;;;11.43;5.77;;;;;;;;;;5022562;28;20200;-87
2022/02/12 03:50:16;;;;;;;10.63;5.93;;;;;;;;;;5018445;28;20286;-88
2022/02/12 03:52:43;;;;;;;11.03;5.70;;;;;;;;;;5025987;28;20661;-88
2022/02/12 03:55:10;;;;;;;11.43;6.20;;;;;;;;;;5014668;28;20263;-87
2022/02/12 03:57:37;;;;;;;9.63;5.40;;;;;;;;;;5029406;28;20232;-87
2022/02/12 04:00:05;;;;;;;11.10;5.87;;;;;;;;;;5023289;28;20200;-87
2022/02/12 04:02:32;;;;;;;11.00;6.40;;;;;;;;;;5022768;28;20259;-87
2022/02/12 04:05:01;;;;;;;13.33;6.80;;;;;;;;;;5022251;28;20208;-88
2022/02/12 04:07:28;;;;;;;12.33;5.80;;;;;;;;;;5014173;28;20663;-88
2022/02/12 04:09:56;;;;;;;9.57;5.90;;;;;;;;;;5013755;28;20225;-87
2022/02/12 04:12:23;;;;;;;10.77;5.53;;;;;;;;;;5014101;28;20268;-87
2022/02/12 04:14:50;;;;;;;10.73;5.93;;;;;;;;;;5013905;28;20249;-87
2022/02/12 04:17:17;;;;;;;9.53;5.07;;;;;;;;;;5013893;28;20849;-87
2022/02/12 04:19:45;;;;;;;8.50;5.47;;;;;;;;;;5025204;28;20204;-87
2022/02/12 04:22:13;;;;;;;9.73;5.20;;;;;;;;;;5023325;28;20228;-88
2022/02/12 04:24:41;;;;;;;11.47;5.80;;;;;;;;;;5021082;28;20733;-87
2022/02/12 04:27:08;;;;;;;10.60;5.83;;;;;;;;;;5022466;28;20201;-87
2022/02/12 04:29:38;;;;;;;10.43;6.20;;;;;;;;;;5033762;28;20236;-87
2022/02/12 04:32:05;;;;;;;11.50;5.70;;;;;;;;;;5033783;28;20660;-87
2022/02/12 04:34:32;;;;;;;13.27;5.67;;;;;;;;;;5033994;28;20291;-87
2022/02/12 04:37:00;;;;;;;13.07;5.43;;;;;;;;;;5033589;28;20201;-87
2022/02/12 04:39:28;;;;;;;10.60;5.73;;;;;;;;;;5033534;28;20227;-87
2022/02/12 04:41:56;;;;;;;8.03;5.27;;;;;;;;;;5016085;28;20220;-87
2022/02/12 04:44:23;;;;;;;11.30;5.20;;;;;;;;;;5013722;28;20725;-87
2022/02/12 04:46:50;;;;;;;9.77;5.40;;;;;;;;;;5014245;28;20205;-87
2022/02/12 04:49:22;;;;;;;9.47;5.70;;;;;;;;;;5022069;28;20276;-87
2022/02/12 04:51:49;;;;;;;7.53;5.20;;;;;;;;;;5030804;28;20227;-87
2022/02/12 04:54:17;;;;;;;8.60;5.63;;;;;;;;;;5031560;28;20208;-87
2022/02/12 04:56:46;;;;;;;10.67;6.20;;;;;;;;;;5026070;28;20226;-87
2022/02/12 04:59:13;;;;;;;10.77;6.03;;;;;;;;;;5017049;28;20207;-87
2022/02/12 05:01:40;;;;;;;12.23;6.00;;;;;;;;;;5029695;28;20204;-87
2022/02/12 05:04:07;;;;;;;13.17;6.30;;;;;;;;;;5020503;28;20239;-87
2022/02/12 05:06:35;;;;;;;11.70;6.47;;;;;;;;;;5032481;28;20199;-87
2022/02/12 05:09:02;;;;;;;11.43;6.43;;;;;;;;;;5026434;28;20291;-87
2022/02/12 05:11:29;;;;;;;13.17;6.67;;;;;;;;;;5021986;28;20231;-87
2022/02/12 05:13:58;;;;;;;11.57;6.37;;;;;;;;;;5024428;28;20670;-87
2022/02/12 05:16:25;;;;;;;12.10;6.10;;;;;;;;;;5028929;28;20273;-88
2022/02/12 05:18:53;;;;;;;11.23;6.20;;;;;;;;;;5028876;28;20212;-87
2022/02/12 05:21:20;;;;;;;12.80;6.37;;;;;;;;;;5012626;28;20201;-87
2022/02/12 05:23:47;;;;;;;13.53;6.90;;;;;;;;;;5012995;28;20204;-87
2022/02/12 05:26:16;;;;;;;14.07;6.60;;;;;;;;;;5012705;28;20236;-87
2022/02/12 05:28:43;;;;;;;10.27;6.23;;;;;;;;;;5012349;28;20230;-86
2022/02/12 05:31:12;;;;;;;11.80;7.20;;;;;;;;;;5012571;28;20708;-87
2022/02/12 05:33:39;;;;;;;14.93;7.07;;;;;;;;;;5012718;28;20206;-87
2022/02/12 05:36:06;;;;;;;12.37;7.53;;;;;;;;;;5011653;28;20625;-87
2022/02/12 05:38:34;;;;;;;14.83;8.13;;;;;;;;;;5012255;28;20205;-87
2022/02/12 05:41:01;;;;;;;11.17;7.30;;;;;;;;;;5012806;28;20631;-87
2022/02/12 05:43:29;;;;;;;12.53;7.40;;;;;;;;;;5012355;28;20227;-87
2022/02/12 05:45:56;;;;;;;12.87;7.20;;;;;;;;;;5012736;28;20205;-87
2022/02/12 05:48:24;;;;;;;15.30;7.60;;;;;;;;;;5027353;28;20211;-87
2022/02/12 05:50:52;;;;;;;14.07;7.37;;;;;;;;;;5031702;28;20269;-87
2022/02/12 05:53:20;;;;;;;14.23;7.23;;;;;;;;;;5031078;28;20203;-86
2022/02/12 05:55:47;;;;;;;12.60;7.30;;;;;;;;;;5023641;28;20621;-87
2022/02/12 05:58:14;;;;;;;12.40;7.40;;;;;;;;;;5023993;28;20204;-87
2022/02/12 06:00:42;;;;;;;14.17;8.20;;;;;;;;;;5024207;28;20260;-87
2022/02/12 06:03:10;;;;;;;16.40;7.50;;;;;;;;;;5016471;28;20621;-86
2022/02/12 06:05:39;;;;;;;15.53;7.83;;;;;;;;;;5016757;28;20212;-87
2022/02/12 06:08:06;;;;;;;13.60;7.43;;;;;;;;;;5030518;28;20304;-86
2022/02/12 06:10:34;;;;;;;10.77;8.03;;;;;;;;;;5032210;28;20287;-87
2022/02/12 06:13:01;;;;;;;14.57;7.93;;;;;;;;;;5030175;28;20199;-87
2022/02/12 06:15:29;;;;;;;14.23;7.73;;;;;;;;;;5023556;28;20234;-86
2022/02/12 06:17:57;;;;;;;13.80;7.63;;;;;;;;;;5022128;28;20211;-87
2022/02/12 06:20:24;;;;;;;11.57;6.97;;;;;;;;;;5024690;28;20197;-87
2022/02/12 06:22:53;;;;;;;12.13;7.47;;;;;;;;;;5032165;28;20238;-87
2022/02/12 06:25:20;;;;;;;11.57;7.00;;;;;;;;;;5031522;28;20258;-87
2022/02/12 06:27:47;;;;;;;11.23;7.07;;;;;;;;;;5016958;28;20215;-86
2022/02/12 06:30:15;;;;;;;10.17;6.53;;;;;;;;;;5022991;28;20257;-86
2022/02/12 06:32:42;;;;;;;10.20;6.97;;;;;;;;;;5031029;28;20195;-87
2022/02/12 06:35:09;;;;;;;13.93;7.23;;;;;;;;;;5031738;28;20203;-87
2022/02/12 06:37:37;;;;;;;12.17;7.33;;;;;;;;;;5029935;28;20207;-87
2022/02/12 06:40:06;;;;;;;9.93;6.83;;;;;;;;;;5020560;28;20208;-86
2022/02/12 06:42:33;;;;;;;11.77;7.63;;;;;;;;;;5026290;28;20260;-86
2022/02/12 06:45:01;;;;;;;13.37;7.10;;;;;;;;;;5012233;28;20219;-86
2022/02/12 06:47:28;;;;;;;16.07;7.50;;;;;;;;;;5012607;28;20815;-86
2022/02/12 06:49:55;;;;;;;14.13;6.87;;;;;;;;;;5015927;28;20251;-87
2022/02/12 06:52:22;;;;;;;12.00;7.20;;;;;;;;;;5029886;28;20244;-86
2022/02/12 06:54:50;;;;;;;13.07;7.23;;;;;;;;;;5029772;28;20208;-86
2022/02/12 06:57:18;;;;;;;18.33;7.67;;;;;;;;;;5027874;28;20208;-86
2022/02/12 06:59:45;;;;;;;13.97;7.03;;;;;;;;;;5023260;28;20199;-86
2022/02/12 07:02:13;;;;;;;14.80;7.47;;;;;;;;;;5024246;28;20197;-86
2022/02/12 07:04:40;;;;;;;11.77;7.17;;;;;;;;;;5025142;28;20266;-85
2022/02/12 07:07:07;;;;;;;12.33;7.37;;;;;;;;;;5025506;28;20200;-86
2022/02/12 07:09:35;;;;;;;12.63;6.77;;;;;;;;;;5017876;28;20207;-85
2022/02/12 07:12:02;;;;;;;14.57;6.43;;;;;;;;;;5017441;28;20232;-85
2022/02/12 07:14:31;;;;;;;10.33;7.07;;;;;;;;;;5025917;28;20577;-86
2022/02/12 07:16:58;;;;;;;11.13;6.53;;;;;;;;;;5021101;28;20333;-85
2022/02/12 07:19:25;;;;;;;14.17;7.53;;;;;;;;;;5024742;28;20211;-86
2022/02/12 07:21:52;;;;;;;10.90;7.23;;;;;;;;;;5026620;28;20230;-86
2022/02/12 07:24:20;;;;;;;11.80;7.40;;;;;;;;;;5026525;28;20640;-86
2022/02/12 07:26:47;;;;;;;13.40;6.87;;;;;;;;;;5026950;28;20235;-86
2022/02/12 07:29:14;;;;;;;14.83;7.00;;;;;;;;;;5027388;28;20236;-85
2022/02/12 07:31:43;;;;;;;11.93;6.33;;;;;;;;;;5026368;28;20289;-86
2022/02/12 07:34:14;;;;;;;8.47;5.30;;;;;;;;;;5020381;28;20203;-85
2022/02/12 07:36:41;;;;;;;13.23;6.60;;;;;;;;;;5031316;28;20284;-85
2022/02/12 07:39:08;;;;;;;11.93;5.60;;;;;;;;;;5023426;28;20662;-85
2022/02/12 07:41:35;;;;;;;9.97;5.20;;;;;;;;;;5025937;28;20300;-85
2022/02/12 07:44:03;;;;;;;9.87;5.10;;;;;;;;;;5022962;28;20630;-85
2022/02/12 07:46:30;;;;;;;8.80;4.87;;;;;;;;;;5015165;28;20228;-85
2022/02/12 07:48:59;;;;;;;8.93;4.60;;;;;;;;;;5023209;28;20244;-85
2022/02/12 07:51:26;;;;;;;9.43;5.00;;;;;;;;;;5030449;28;20670;-85
2022/02/12 07:53:53;;;;;;;9.27;4.67;;;;;;;;;;5022882;28;20206;-85
2022/02/12 07:56:20;;;;;;;8.20;4.17;;;;;;;;;;5023859;28;20225;-86
2022/02/12 07:58:48;;;;;;;7.67;3.80;;;;;;;;;;5024740;28;20200;-85
2022/02/12 08:01:15;;;;;;;5.53;3.67;;;;;;;;;;5021281;28;20583;-86
2022/02/12 08:03:42;;;;;;;5.37;3.30;;;;;;;;;;5020297;28;20232;-86
2022/02/12 08:08:52;;;;;;;6.00;3.43;;;;;;;;;;5024101;28;20613;-85
2022/02/12 08:11:29;;;;;;;7.93;3.60;;;;;;;;;;5026973;28;20281;-85
2022/02/12 08:13:56;;;;;;;9.27;3.70;;;;;;;;;;5026369;28;20210;-85
2022/02/12 08:16:23;;;;;;;6.37;3.00;;;;;;;;;;5021043;28;20585;-85
2022/02/12 08:18:51;;;;;;;7.53;3.53;;;;;;;;;;5031293;28;20758;-86
2022/02/12 08:21:19;;;;;;;5.40;3.00;;;;;;;;;;5019905;28;20200;-86
2022/02/12 08:23:46;;;;;;;6.80;3.17;;;;;;;;;;5026533;28;20247;-85
2022/02/12 08:26:14;;;;;;;9.07;3.20;;;;;;;;;;5014902;28;20841;-86
2022/02/12 08:28:42;;;;;;;4.63;2.83;;;;;;;;;;5022010;28;20618;-87
2022/02/12 08:31:09;;;;;;;7.07;3.40;;;;;;;;;;5024375;28;20224;-86
2022/02/12 08:33:36;;;;;;;4.97;2.80;;;;;;;;;;5025095;28;20192;-86
2022/02/12 08:36:04;;;;;;;5.80;3.00;;;;;;;;;;5022935;28;20645;-86
2022/02/12 08:38:33;;;;;;;4.63;2.80;;;;;;;;;;5021910;28;20201;-86
2022/02/12 08:41:00;;;;;;;5.83;3.00;;;;;;;;;;5028824;28;20216;-86
2022/02/12 08:43:27;;;;;;;8.63;3.80;;;;;;;;;;5013757;28;20609;-86
2022/02/12 08:45:55;;;;;;;6.23;3.03;;;;;;;;;;5014264;28;20201;-86
2022/02/12 08:48:22;;;;;;;4.93;2.77;;;;;;;;;;5024483;28;20279;-86
2022/02/12 08:50:49;;;;;;;5.97;3.40;;;;;;;;;;5027181;28;20339;-86
2022/02/12 08:53:17;;;;;;;6.23;3.27;;;;;;;;;;5033498;28;20246;-86
2022/02/12 08:55:46;;;;;;;5.67;2.83;;;;;;;;;;5026652;28;20707;-87
2022/02/12 08:58:13;;;;;;;6.00;2.70;;;;;;;;;;5021373;28;20256;-86
2022/02/12 09:00:40;;;;;;;6.03;3.13;;;;;;;;;;5021615;28;20360;-86
2022/02/12 09:03:08;;;;;;;7.20;3.30;;;;;;;;;;5022796;28;20200;-86
2022/02/12 09:05:36;;;;;;;5.50;2.87;;;;;;;;;;5020782;28;20202;-86
2022/02/12 09:08:03;;;;;;;8.73;3.17;;;;;;;;;;5013341;28;20622;-86
2022/02/12 09:10:30;;;;;;;8.00;3.40;;;;;;;;;;5032399;28;20224;-86
2022/02/12 09:12:59;;;;;;;6.27;3.30;;;;;;;;;;5025957;28;20221;-86
2022/02/12 09:15:26;;;;;;;6.00;2.83;;;;;;;;;;5013323;28;20240;-86
2022/02/12 09:17:53;;;;;;;5.97;3.50;;;;;;;;;;5013436;28;20193;-86
2022/02/12 09:20:21;;;;;;;6.03;3.50;;;;;;;;;;5029007;28;20228;-86
2022/02/12 09:22:48;;;;;;;7.50;3.50;;;;;;;;;;5029271;28;20208;-86
2022/02/12 09:25:16;;;;;;;5.10;3.20;;;;;;;;;;5015764;28;20664;-85
2022/02/12 09:27:43;;;;;;;5.43;3.33;;;;;;;;;;5013095;28;20244;-85
2022/02/12 09:30:13;;;;;;;6.00;3.13;;;;;;;;;;5013659;28;20233;-87
2022/02/12 09:32:40;;;;;;;9.30;3.90;;;;;;;;;;5012688;28;20804;-87
2022/02/12 09:35:07;;;;;;;9.23;3.57;;;;;;;;;;5015895;28;20251;-86
2022/02/12 09:37:35;;;;;;;7.20;3.33;;;;;;;;;;5023723;28;20236;-86
2022/02/12 09:40:04;;;;;;;6.73;3.33;;;;;;;;;;5026432;28;20287;-87
2022/02/12 09:42:31;;;;;;;5.73;3.50;;;;;;;;;;5030304;28;20251;-87
2022/02/12 09:44:58;;;;;;;5.37;3.17;;;;;;;;;;5027034;28;20263;-87
2022/02/12 09:47:33;;;;;;;5.20;2.97;;;;;;;;;;5021279;28;20232;-87
2022/02/12 09:50:01;;;;;;;6.27;3.30;;;;;;;;;;5013958;28;20204;-87
2022/02/12 09:52:30;;;;;;;7.77;3.20;;;;;;;;;;5013769;28;20277;-86
2022/02/12 09:54:59;;;;;;;5.90;3.10;;;;;;;;;;5026945;28;20204;-86
2022/02/12 09:57:26;;;;;;;5.93;3.33;;;;;;;;;;5032531;28;20878;-87
2022/02/12 10:00:01;;;;;;;6.63;3.30;;;;;;;;;;5032696;28;20211;-87
2022/02/12 10:02:30;;;;;;;6.60;3.10;;;;;;;;;;5032719;28;20201;-86
2022/02/12 10:05:15;;;;;;;4.90;3.20;;;;;;;;;;5015615;28;20263;-86
2022/02/12 10:07:43;;;;;;;5.83;3.57;;;;;;;;;;5009453;28;20216;-86
2022/02/12 10:10:13;;;;;;;7.40;3.73;;;;;;;;;;5012053;28;20200;-87
2022/02/12 10:12:40;;;;;;;6.80;3.43;;;;;;;;;;5020558;28;20252;-87
2022/02/12 10:15:12;;;;;;;7.43;3.30;;;;;;;;;;5019325;28;20271;-86
2022/02/12 10:17:53;;;;;;;5.60;3.37;;;;;;;;;;5014314;28;20294;-86
2022/02/12 10:20:25;;;;;;;7.57;3.53;;;;;;;;;;5006470;28;20291;-87
2022/02/12 10:22:53;;;;;;;7.63;3.60;;;;;;;;;;5011511;28;20204;-87
2022/02/12 10:25:21;;;;;;;8.93;3.57;;;;;;;;;;5017004;28;20209;-87
2022/02/12 10:27:50;;;;;;;5.83;3.33;;;;;;;;;;5013530;28;20206;-87
2022/02/12 10:30:18;;;;;;;7.07;3.60;;;;;;;;;;5019593;28;20204;-88
2022/02/12 10:32:47;;;;;;;6.63;3.43;;;;;;;;;;5011901;28;20274;-86
2022/02/12 10:35:15;;;;;;;6.60;3.80;;;;;;;;;;5012477;28;20197;-87
2022/02/12 10:37:43;;;;;;;4.27;3.23;;;;;;;;;;5012433;28;20735;-87
2022/02/12 10:40:11;;;;;;;5.50;3.60;;;;;;;;;;5013597;28;20232;-88
2022/02/12 10:42:44;;;;;;;7.67;3.73;;;;;;;;;;5019465;28;20254;-88
2022/02/12 10:45:13;;;;;;;5.93;3.73;;;;;;;;;;5020712;28;20213;-88
2022/02/12 10:47:42;;;;;;;6.40;3.43;;;;;;;;;;5027531;28;20212;-87
2022/02/12 10:50:10;;;;;;;4.67;3.27;;;;;;;;;;5014645;28;20212;-87
2022/02/12 10:52:42;;;;;;;6.10;3.80;;;;;;;;;;5017204;28;20221;-88
2022/02/12 10:55:21;;;;;;;6.33;3.80;;;;;;;;;;5011886;28;20210;-87
2022/02/12 10:57:48;;;;;;;7.73;3.63;;;;;;;;;;5019882;28;20225;-86
2022/02/12 11:00:17;;;;;;;6.53;3.50;;;;;;;;;;5012952;28;20270;-87
2022/02/12 11:02:45;;;;;;;6.00;3.63;;;;;;;;;;5011893;28;20203;-87
2022/02/12 11:05:12;;;;;;;4.30;3.00;;;;;;;;;;5031433;28;20216;-87
2022/02/12 11:07:40;;;;;;;5.57;3.40;;;;;;;;;;5017191;28;20205;-86
2022/02/12 11:10:09;;;;;;;6.10;3.63;;;;;;;;;;5011699;28;20236;-85
2022/02/12 11:15:43;;;;;;;7.03;3.97;;;;;;;;;;5025866;28;20768;-85
2022/02/12 11:18:11;;;;;;;7.47;3.70;;;;;;;;;;5012674;28;20271;-87
2022/02/12 11:20:39;;;;;;;5.87;3.73;;;;;;;;;;5012385;28;20209;-87
2022/02/12 11:23:27;;;;;;;9.23;3.73;;;;;;;;;;5011789;28;20209;-87
2022/02/12 11:25:56;;;;;;;5.30;3.53;;;;;;;;;;5011665;28;20243;-87
2022/02/12 11:28:30;;;;;;;9.87;4.50;;;;;;;;;;5001502;28;20205;-87
2022/02/12 11:31:16;;;;;;;5.10;3.40;;;;;;;;;;5018771;28;20204;-87
2022/02/12 11:33:58;;;;;;;6.00;3.47;;;;;;;;;;5018250;28;20645;-87
2022/02/12 11:36:26;;;;;;;7.73;3.67;;;;;;;;;;5013362;28;20262;-87
2022/02/12 11:39:05;;;;;;;6.37;3.60;;;;;;;;;;5015203;28;20209;-87
2022/02/12 11:41:34;;;;;;;5.97;3.70;;;;;;;;;;5015395;28;20235;-87
2022/02/12 11:44:01;;;;;;;6.70;3.60;;;;;;;;;;5029876;28;20255;-87
2022/02/12 11:47:05;;;;;;;6.30;3.63;;;;;;;;;;5018195;28;20205;-86
2022/02/12 11:49:33;;;;;;;5.27;3.70;;;;;;;;;;5023696;28;20202;-87
2022/02/12 11:52:02;;;;;;;6.33;3.77;;;;;;;;;;5014592;28;20271;-87
2022/02/12 11:54:49;;;;;;;6.60;4.00;;;;;;;;;;5015043;28;20227;-87
2022/02/12 11:57:19;;;;;;;8.47;3.77;;;;;;;;;;5022832;28;20234;-87
2022/02/12 11:59:47;;;;;;;5.97;3.77;;;;;;;;;;5034728;28;20207;-87
2022/02/12 12:02:33;;;;;;;5.80;3.30;;;;;;;;;;5035353;28;20258;-87
2022/02/12 12:05:12;;;;;;;9.13;4.30;;;;;;;;;;5034678;28;20200;-86
2022/02/12 12:07:54;;;;;;;6.73;3.80;;;;;;;;;;5034355;28;20300;-87
2022/02/12 12:10:22;;;;;;;6.80;3.93;;;;;;;;;;5033923;28;20204;-87
2022/02/12 12:12:51;;;;;;;7.33;3.93;;;;;;;;;;5034256;28;20236;-88
2022/02/12 12:15:26;;;;;;;6.20;4.27;;;;;;;;;;5034732;28;20662;-87
2022/02/12 12:17:57;;;;;;;6.60;3.93;;;;;;;;;;5034504;28;20215;-87
2022/02/12 12:20:34;;;;;;;6.17;4.47;;;;;;;;;;5032414;28;20637;-87
2022/02/12 12:23:02;;;;;;;7.37;4.60;;;;;;;;;;5021812;28;20235;-86
2022/02/12 12:25:47;;;;;;;6.77;4.53;;;;;;;;;;5022846;28;20287;-86
2022/02/12 12:28:25;;;;;;;6.37;4.40;;;;;;;;;;5015127;28;20204;-87
2022/02/12 12:30:52;;;;;;;7.90;4.30;;;;;;;;;;5015040;28;20197;-87
2022/02/12 12:33:19;;;;;;;7.37;4.50;;;;;;;;;;5014478;28;20223;-87
2022/02/12 12:35:51;;;;;;;7.23;4.20;;;;;;;;;;5014025;28;20197;-87
2022/02/12 12:38:20;;;;;;;5.50;3.53;;;;;;;;;;5014259;28;20196;-88
2022/02/12 12:40:50;;;;;;;6.10;4.13;;;;;;;;;;5014207;28;20213;-87
2022/02/12 12:43:17;;;;;;;7.17;4.23;;;;;;;;;;5014103;28;20244;-88
2022/02/12 12:45:46;;;;;;;6.57;4.23;;;;;;;;;;5013975;28;20244;-87
2022/02/12 12:48:13;;;;;;;6.43;4.10;;;;;;;;;;5014396;28;20267;-87
2022/02/12 12:50:42;;;;;;;8.87;4.37;;;;;;;;;;5013848;28;20659;-87
2022/02/12 12:53:10;;;;;;;6.47;4.00;;;;;;;;;;5014152;28;20227;-87
2022/02/12 12:55:38;;;;;;;7.37;4.27;;;;;;;;;;5014352;28;20205;-87
2022/02/12 12:58:11;;;;;;;6.07;4.50;;;;;;;;;;5014316;28;20209;-87
2022/02/12 13:00:39;;;;;;;7.20;4.23;;;;;;;;;;5013955;28;20216;-87
2022/02/12 13:03:07;;;;;;;5.70;3.97;;;;;;;;;;5014216;28;20624;-87
2022/02/12 13:05:35;;;;;;;7.03;4.17;;;;;;;;;;5013664;28;20256;-87
2022/02/12 13:08:03;;;;;;;7.17;4.10;;;;;;;;;;5014095;28;20201;-87
2022/02/12 13:10:31;;;;;;;8.47;4.43;;;;;;;;;;5013658;28;20201;-88
2022/02/12 13:13:10;;;;;;;4.93;3.97;;;;;;;;;;5014008;28;20255;-87
2022/02/12 13:15:39;;;;;;;5.23;4.00;;;;;;;;;;5014054;28;20266;-88
2022/02/12 13:18:09;;;;;;;6.10;4.00;;;;;;;;;;5013635;28;20201;-86
2022/02/12 13:20:37;;;;;;;7.13;4.30;;;;;;;;;;5013695;28;20563;-87
2022/02/12 13:23:05;;;;;;;6.47;4.07;;;;;;;;;;5013935;28;20251;-88
2022/02/12 13:25:36;;;;;;;7.00;4.10;;;;;;;;;;5013178;28;20707;-88
2022/02/12 13:28:03;;;;;;;6.53;4.20;;;;;;;;;;5013888;28;20275;-88
2022/02/12 13:30:33;;;;;;;9.17;3.80;;;;;;;;;;5013499;28;20209;-87
2022/02/12 13:33:01;;;;;;;5.90;4.27;;;;;;;;;;5013113;28;20299;-87
2022/02/12 13:35:33;;;;;;;5.17;4.17;;;;;;;;;;5013304;28;20194;-88
2022/02/12 13:38:00;;;;;;;5.53;4.50;;;;;;;;;;5013251;28;20197;-88
2022/02/12 13:40:30;;;;;;;4.27;3.70;;;;;;;;;;5013288;28;20201;-88
2022/02/12 13:42:58;;;;;;;7.43;4.73;;;;;;;;;;5013096;28;20241;-87
2022/02/12 13:45:26;;;;;;;6.03;4.37;;;;;;;;;;5013320;28;20259;-87
2022/02/12 13:47:58;;;;;;;7.43;4.60;;;;;;;;;;5012888;28;20251;-88
2022/02/12 13:50:26;;;;;;;6.53;4.87;;;;;;;;;;5013217;28;20201;-87
2022/02/12 13:52:56;;;;;;;8.87;4.77;;;;;;;;;;5013238;28;20263;-87
2022/02/12 13:55:23;;;;;;;6.00;4.37;;;;;;;;;;5013197;28;20215;-87
2022/02/12 13:57:50;;;;;;;6.47;4.20;;;;;;;;;;5012585;28;20203;-88
2022/02/12 14:00:18;;;;;;;7.80;4.37;;;;;;;;;;5013589;28;20553;-88
2022/02/12 14:02:48;;;;;;;7.70;4.70;;;;;;;;;;5013680;28;20572;-88
2022/02/12 14:05:15;;;;;;;7.30;4.50;;;;;;;;;;5013795;28;20731;-88
2022/02/12 14:07:43;;;;;;;8.70;4.27;;;;;;;;;;5013831;28;20262;-88
2022/02/12 14:10:13;;;;;;;5.00;4.00;;;;;;;;;;5013959;28;20248;-89
2022/02/12 14:12:41;;;;;;;5.40;4.17;;;;;;;;;;5013535;28;20255;-88
2022/02/12 14:15:10;;;;;;;5.43;4.33;;;;;;;;;;5013907;28;20251;-88
2022/02/12 14:17:40;;;;;;;7.73;4.57;;;;;;;;;;5013692;28;20729;-88
2022/02/12 14:20:09;;;;;;;7.03;4.67;;;;;;;;;;5013877;28;20269;-88
2022/02/12 14:22:36;;;;;;;7.50;4.80;;;;;;;;;;5013817;28;20208;-88
2022/02/12 14:25:04;;;;;;;9.07;5.17;;;;;;;;;;5013498;28;20227;-88
2022/02/12 14:27:33;;;;;;;6.67;4.50;;;;;;;;;;5014272;28;20201;-88
2022/02/12 14:30:00;;;;;;;9.00;5.00;;;;;;;;;;5013402;28;20205;-88
2022/02/12 14:32:35;;;;;;;8.07;5.70;;;;;;;;;;5013717;28;20201;-88
2022/02/12 14:35:02;;;;;;;7.63;5.07;;;;;;;;;;5013847;28;20663;-88
2022/02/12 14:37:30;;;;;;;9.40;4.57;;;;;;;;;;5013655;28;20196;-87
2022/02/12 14:39:57;;;;;;;7.53;4.73;;;;;;;;;;5011893;28;20212;-88
2022/02/12 14:42:25;;;;;;;9.20;4.80;;;;;;;;;;4993941;28;20295;-88
2022/02/12 14:44:53;;;;;;;7.93;5.10;;;;;;;;;;4993707;28;20205;-87
2022/02/12 14:47:21;;;;;;;9.30;4.57;;;;;;;;;;4994357;28;20249;-88
2022/02/12 14:49:50;;;;;;;4.77;4.10;;;;;;;;;;4995279;28;20194;-87
2022/02/12 14:52:18;;;;;;;6.37;4.70;;;;;;;;;;4997871;28;20214;-88
2022/02/12 14:54:48;;;;;;;5.97;4.17;;;;;;;;;;4996682;28;20701;-87
2022/02/12 14:57:16;;;;;;;6.07;4.13;;;;;;;;;;4995852;28;20207;-88